Time;durP1;ratioP1;P1;durP2;ratioP2;P2;SDS_P1;SDS_P2;PMS_P1;PMS_P2;Temp;Humidity;BMP_temperature;BMP_pressure;BME280_temperature;BME280_humidity;BME280_pressure;Samples;Min_cycle;Max_cycle;Signal;HPM_P1;HPM_P2
2021/10/01 00:00:11;;;;;;;5.95;1.48;;;;;;;;;;6239452;23;20079;-74
2021/10/01 00:02:37;;;;;;;7.22;1.60;;;;;;;;;;6236953;23;20000;-74
2021/10/01 00:05:04;;;;;;;5.03;1.70;;;;;;;;;;6239354;23;20023;-74
2021/10/01 00:07:30;;;;;;;6.20;1.80;;;;;;;;;;6239449;23;20011;-74
2021/10/01 00:09:56;;;;;;;8.77;1.88;;;;;;;;;;6239446;23;20008;-81
2021/10/01 00:12:22;;;;;;;7.20;1.70;;;;;;;;;;6239368;23;20004;-76
2021/10/01 00:14:48;;;;;;;5.47;1.58;;;;;;;;;;6237599;23;20063;-83
2021/10/01 00:17:15;;;;;;;7.22;1.50;;;;;;;;;;6239278;23;20540;-81
2021/10/01 00:19:41;;;;;;;7.18;1.60;;;;;;;;;;6238847;23;19996;-73
2021/10/01 00:22:08;;;;;;;5.07;1.50;;;;;;;;;;6239828;23;20028;-82
2021/10/01 00:24:35;;;;;;;3.40;1.25;;;;;;;;;;6239514;23;20317;-75
2021/10/01 00:27:02;;;;;;;8.32;1.50;;;;;;;;;;6237429;23;20015;-74
2021/10/01 00:29:28;;;;;;;8.05;1.80;;;;;;;;;;6239183;23;20064;-76
2021/10/01 00:31:54;;;;;;;6.20;1.40;;;;;;;;;;6238660;23;20039;-81
2021/10/01 00:34:20;;;;;;;8.52;1.70;;;;;;;;;;6239088;23;20317;-74
2021/10/01 00:36:46;;;;;;;6.78;1.35;;;;;;;;;;6236855;23;20079;-73
2021/10/01 00:39:13;;;;;;;6.07;1.15;;;;;;;;;;6239246;23;20006;-78
2021/10/01 00:41:39;;;;;;;11.27;1.75;;;;;;;;;;6239264;23;20009;-75
2021/10/01 00:44:06;;;;;;;8.75;1.60;;;;;;;;;;6238784;23;20047;-82
2021/10/01 00:46:32;;;;;;;8.30;1.75;;;;;;;;;;6237136;23;20431;-83
2021/10/01 00:48:58;;;;;;;7.80;1.80;;;;;;;;;;6238982;23;20447;-75
2021/10/01 00:51:25;;;;;;;6.32;1.45;;;;;;;;;;6238647;22;20007;-80
2021/10/01 00:53:52;;;;;;;5.20;2.00;;;;;;;;;;6239139;23;19998;-76
2021/10/01 00:56:19;;;;;;;6.75;1.90;;;;;;;;;;6237121;23;20794;-82
2021/10/01 00:58:45;;;;;;;5.43;1.33;;;;;;;;;;6239079;23;20268;-77
2021/10/01 01:01:11;;;;;;;4.30;1.58;;;;;;;;;;6238765;23;20069;-75
2021/10/01 01:03:40;;;;;;;8.65;1.25;;;;;;;;;;6237119;23;20009;-74
2021/10/01 01:06:25;;;;;;;7.45;1.55;;;;;;;;;;6237805;23;20668;-75
2021/10/01 01:08:51;;;;;;;7.75;1.80;;;;;;;;;;6238779;23;20071;-73
2021/10/01 01:11:46;;;;;;;6.97;1.70;;;;;;;;;;6238502;23;20011;-77
2021/10/01 01:14:19;;;;;;;4.68;1.48;;;;;;;;;;6212867;23;20004;-75
2021/10/01 01:16:45;;;;;;;9.38;1.52;;;;;;;;;;6238899;23;20484;-74
2021/10/01 01:19:22;;;;;;;6.55;2.67;;;;;;;;;;6238851;23;19996;-77
2021/10/01 01:21:57;;;;;;;12.88;1.73;;;;;;;;;;6236906;23;20012;-75
2021/10/01 01:24:36;;;;;;;6.10;1.52;;;;;;;;;;6238499;23;19996;-81
2021/10/01 01:27:08;;;;;;;7.57;1.67;;;;;;;;;;6238606;23;20054;-75
2021/10/01 01:29:53;;;;;;;7.25;1.33;;;;;;;;;;6238782;23;20075;-81
2021/10/01 01:32:21;;;;;;;8.43;2.28;;;;;;;;;;6238628;23;20094;-73
2021/10/01 01:34:49;;;;;;;8.00;2.20;;;;;;;;;;6238377;23;20083;-79
2021/10/01 01:37:18;;;;;;;6.50;1.63;;;;;;;;;;6236732;23;20011;-73
2021/10/01 01:39:46;;;;;;;4.45;1.73;;;;;;;;;;6238518;23;19996;-80
2021/10/01 01:42:13;;;;;;;6.97;1.60;;;;;;;;;;6238401;23;20008;-82
2021/10/01 01:44:39;;;;;;;6.38;1.65;;;;;;;;;;6236457;23;20007;-82
2021/10/01 01:47:05;;;;;;;6.88;1.33;;;;;;;;;;6238391;23;20004;-80
2021/10/01 01:49:32;;;;;;;8.05;1.65;;;;;;;;;;6238467;23;20325;-74
2021/10/01 01:51:59;;;;;;;4.85;1.65;;;;;;;;;;6238295;22;20008;-83
2021/10/01 01:54:26;;;;;;;6.72;1.70;;;;;;;;;;6238608;23;20028;-74
2021/10/01 01:56:53;;;;;;;8.18;1.63;;;;;;;;;;6238231;23;20334;-75
2021/10/01 01:59:20;;;;;;;4.30;1.92;;;;;;;;;;6237059;23;20007;-73
2021/10/01 02:01:47;;;;;;;5.18;1.35;;;;;;;;;;6238770;23;20008;-73
2021/10/01 02:04:14;;;;;;;7.15;1.30;;;;;;;;;;6238580;23;20000;-74
2021/10/01 02:06:42;;;;;;;6.43;1.58;;;;;;;;;;6238328;23;20166;-74
2021/10/01 02:09:10;;;;;;;8.27;1.88;;;;;;;;;;6230465;23;20008;-78
2021/10/01 02:11:36;;;;;;;5.50;1.65;;;;;;;;;;6230515;23;20093;-73
2021/10/01 02:14:03;;;;;;;4.75;1.10;;;;;;;;;;6231936;23;20439;-75
2021/10/01 02:16:30;;;;;;;5.53;1.70;;;;;;;;;;6232168;23;20018;-76
2021/10/01 02:18:58;;;;;;;4.55;1.50;;;;;;;;;;6234681;23;20000;-84
2021/10/01 02:21:25;;;;;;;5.88;1.50;;;;;;;;;;6232983;23;20004;-77
2021/10/01 02:23:51;;;;;;;6.07;1.95;;;;;;;;;;6231729;23;20071;-74
2021/10/01 02:26:34;;;;;;;8.27;1.95;;;;;;;;;;6231484;23;20073;-74
2021/10/01 02:29:03;;;;;;;5.75;1.70;;;;;;;;;;6218573;23;20039;-78
2021/10/01 02:31:41;;;;;;;7.63;1.42;;;;;;;;;;6233531;23;20004;-77
2021/10/01 02:34:08;;;;;;;6.97;1.63;;;;;;;;;;6231988;23;20336;-74
2021/10/01 02:36:35;;;;;;;7.80;1.70;;;;;;;;;;6233892;23;20007;-75
2021/10/01 02:39:01;;;;;;;3.65;1.48;;;;;;;;;;6228802;23;20106;-75
2021/10/01 02:41:27;;;;;;;7.90;1.90;;;;;;;;;;6234204;23;20079;-79
2021/10/01 02:43:53;;;;;;;6.47;1.90;;;;;;;;;;6230406;23;20107;-82
2021/10/01 02:46:19;;;;;;;5.07;1.77;;;;;;;;;;6230046;23;20210;-85
2021/10/01 02:48:45;;;;;;;5.95;1.52;;;;;;;;;;6233152;23;20000;-81
2021/10/01 02:51:18;;;;;;;7.13;1.58;;;;;;;;;;6233403;22;20000;-77
2021/10/01 02:53:56;;;;;;;7.38;2.30;;;;;;;;;;6232328;23;20026;-75
2021/10/01 02:56:30;;;;;;;4.47;1.58;;;;;;;;;;6233137;23;20004;-78
2021/10/01 02:58:58;;;;;;;7.18;1.58;;;;;;;;;;6234656;23;19999;-75
2021/10/01 03:01:26;;;;;;;7.50;1.70;;;;;;;;;;6232287;23;20012;-84
2021/10/01 03:03:53;;;;;;;6.53;1.63;;;;;;;;;;6230561;23;20669;-81
2021/10/01 03:06:20;;;;;;;8.00;1.45;;;;;;;;;;6230629;23;20020;-82
2021/10/01 03:08:50;;;;;;;9.50;1.67;;;;;;;;;;6230336;23;20004;-76
2021/10/01 03:11:17;;;;;;;8.02;1.40;;;;;;;;;;6203843;23;20434;-80
2021/10/01 03:13:45;;;;;;;5.60;1.95;;;;;;;;;;6228649;23;20000;-84
2021/10/01 03:16:12;;;;;;;7.45;1.40;;;;;;;;;;6231065;23;19996;-82
2021/10/01 03:18:39;;;;;;;3.60;1.70;;;;;;;;;;6203858;23;20342;-78
2021/10/01 03:21:06;;;;;;;8.18;1.67;;;;;;;;;;6231053;23;20008;-78
2021/10/01 03:23:32;;;;;;;8.18;1.42;;;;;;;;;;6204317;23;20016;-78
2021/10/01 03:25:59;;;;;;;17.70;2.10;;;;;;;;;;6228704;23;20019;-81
2021/10/01 03:28:25;;;;;;;4.78;1.35;;;;;;;;;;6231011;23;20368;-77
2021/10/01 03:30:51;;;;;;;11.95;1.73;;;;;;;;;;6231060;23;20014;-77
2021/10/01 03:33:18;;;;;;;4.53;1.10;;;;;;;;;;6230144;23;20018;-80
2021/10/01 03:35:46;;;;;;;9.05;1.75;;;;;;;;;;6230099;23;20008;-75
2021/10/01 03:38:15;;;;;;;4.43;1.17;;;;;;;;;;6228676;23;20345;-74
2021/10/01 03:40:43;;;;;;;8.55;1.77;;;;;;;;;;6231110;23;20004;-75
2021/10/01 03:43:10;;;;;;;5.85;1.67;;;;;;;;;;6230422;23;20000;-80
2021/10/01 03:45:36;;;;;;;6.30;1.67;;;;;;;;;;6226098;23;20423;-79
2021/10/01 03:48:03;;;;;;;8.63;1.83;;;;;;;;;;6230127;23;19997;-75
2021/10/01 03:50:30;;;;;;;7.38;1.55;;;;;;;;;;6230989;22;20087;-75
2021/10/01 03:52:56;;;;;;;7.50;2.05;;;;;;;;;;6230204;23;20078;-82
2021/10/01 03:55:23;;;;;;;7.68;1.48;;;;;;;;;;6229877;23;20504;-77
2021/10/01 03:57:49;;;;;;;5.68;1.63;;;;;;;;;;6230674;23;20000;-79
2021/10/01 04:00:16;;;;;;;11.80;1.88;;;;;;;;;;6228575;23;20015;-74
2021/10/01 04:02:42;;;;;;;6.28;1.60;;;;;;;;;;6229751;23;20027;-83
2021/10/01 04:05:08;;;;;;;10.43;2.45;;;;;;;;;;6229510;23;20016;-76
2021/10/01 04:07:34;;;;;;;6.55;1.50;;;;;;;;;;6229187;23;20000;-75
2021/10/01 04:10:00;;;;;;;5.35;1.42;;;;;;;;;;6228465;23;20016;-80
2021/10/01 04:12:27;;;;;;;5.78;1.50;;;;;;;;;;6230532;23;20004;-83
2021/10/01 04:14:54;;;;;;;6.88;1.42;;;;;;;;;;6233609;23;20008;-82
2021/10/01 04:17:20;;;;;;;7.82;1.60;;;;;;;;;;6232955;23;20031;-76
2021/10/01 04:19:46;;;;;;;7.32;1.60;;;;;;;;;;6231177;23;20475;-75
2021/10/01 04:22:12;;;;;;;6.03;1.30;;;;;;;;;;6233185;23;20207;-74
2021/10/01 04:24:39;;;;;;;4.60;1.33;;;;;;;;;;6233165;23;20364;-74
2021/10/01 04:27:05;;;;;;;5.65;1.63;;;;;;;;;;6205878;23;20010;-79
2021/10/01 04:29:31;;;;;;;4.07;1.33;;;;;;;;;;6233112;23;20001;-74
2021/10/01 04:31:57;;;;;;;5.75;1.40;;;;;;;;;;6233204;23;20078;-73
2021/10/01 04:34:23;;;;;;;7.15;1.27;;;;;;;;;;6231008;23;20027;-75
2021/10/01 04:36:49;;;;;;;9.90;1.70;;;;;;;;;;6233304;23;20075;-74
2021/10/01 04:39:16;;;;;;;5.57;1.45;;;;;;;;;;6233302;23;20000;-74
2021/10/01 04:41:42;;;;;;;8.93;1.90;;;;;;;;;;6232110;23;20006;-73
2021/10/01 04:44:08;;;;;;;4.32;1.25;;;;;;;;;;6205906;23;20390;-74
2021/10/01 04:46:35;;;;;;;8.25;1.80;;;;;;;;;;6232825;23;20012;-74
2021/10/01 04:49:01;;;;;;;5.55;1.40;;;;;;;;;;6230878;23;20000;-73
2021/10/01 04:51:28;;;;;;;4.30;1.23;;;;;;;;;;6232634;22;20000;-78
2021/10/01 04:53:54;;;;;;;5.68;1.42;;;;;;;;;;6233142;23;20365;-79
2021/10/01 04:56:21;;;;;;;3.63;1.33;;;;;;;;;;6232561;23;20008;-73
2021/10/01 04:58:47;;;;;;;3.47;1.30;;;;;;;;;;6233831;23;20001;-75
2021/10/01 05:01:13;;;;;;;4.45;1.45;;;;;;;;;;6232735;23;20079;-83
2021/10/01 05:03:39;;;;;;;7.72;1.80;;;;;;;;;;6230942;23;19996;-74
2021/10/01 05:06:05;;;;;;;10.95;2.33;;;;;;;;;;6233174;23;20018;-76
2021/10/01 05:08:31;;;;;;;8.68;2.50;;;;;;;;;;6233119;23;20008;-75
2021/10/01 05:10:58;;;;;;;8.07;2.42;;;;;;;;;;6232957;23;20075;-73
2021/10/01 05:13:24;;;;;;;9.32;2.63;;;;;;;;;;6230622;23;20007;-73
2021/10/01 05:15:50;;;;;;;7.13;2.25;;;;;;;;;;6205307;23;20074;-75
2021/10/01 05:18:17;;;;;;;5.00;1.67;;;;;;;;;;6232590;23;20039;-76
2021/10/01 05:20:44;;;;;;;9.10;2.22;;;;;;;;;;6232773;23;20000;-76
2021/10/01 05:23:10;;;;;;;7.65;1.90;;;;;;;;;;6230934;23;20008;-72
2021/10/01 05:25:36;;;;;;;6.97;1.98;;;;;;;;;;6232705;23;20007;-76
2021/10/01 05:28:03;;;;;;;5.40;1.75;;;;;;;;;;6206432;23;20514;-75
2021/10/01 05:30:29;;;;;;;6.50;2.00;;;;;;;;;;6230465;23;20824;-78
2021/10/01 05:32:55;;;;;;;20.85;2.00;;;;;;;;;;6232098;23;20012;-74
2021/10/01 05:35:21;;;;;;;5.57;1.67;;;;;;;;;;6232099;23;20035;-72
2021/10/01 05:37:48;;;;;;;8.02;1.85;;;;;;;;;;6232511;23;20000;-73
2021/10/01 05:40:14;;;;;;;5.88;1.80;;;;;;;;;;6230691;23;20336;-75
2021/10/01 05:42:40;;;;;;;13.60;2.80;;;;;;;;;;6232240;23;20008;-73
2021/10/01 05:45:07;;;;;;;10.23;2.60;;;;;;;;;;6231241;23;20030;-74
2021/10/01 05:47:34;;;;;;;8.77;2.17;;;;;;;;;;6229738;23;19999;-76
2021/10/01 05:50:03;;;;;;;6.28;2.65;;;;;;;;;;6227752;22;20010;-80
2021/10/01 05:54:59;;;;;;;8.52;2.42;;;;;;;;;;6239162;23;20012;-80
2021/10/01 05:57:26;;;;;;;12.65;3.40;;;;;;;;;;6226757;23;20054;-75
2021/10/01 05:59:53;;;;;;;8.15;3.35;;;;;;;;;;6229122;23;20012;-83
2021/10/01 06:02:20;;;;;;;9.35;2.90;;;;;;;;;;6229889;23;20023;-79
2021/10/01 06:04:46;;;;;;;8.63;2.85;;;;;;;;;;6227433;23;20013;-76
2021/10/01 06:07:13;;;;;;;8.80;2.60;;;;;;;;;;6228987;23;20008;-79
2021/10/01 06:09:43;;;;;;;8.88;3.55;;;;;;;;;;6229215;23;20419;-78
2021/10/01 06:12:12;;;;;;;9.07;2.85;;;;;;;;;;6229534;23;20028;-74
2021/10/01 06:14:38;;;;;;;21.88;3.47;;;;;;;;;;6228342;23;20437;-79
2021/10/01 06:17:04;;;;;;;15.55;7.43;;;;;;;;;;6226795;23;20015;-75
2021/10/01 06:19:34;;;;;;;12.07;5.10;;;;;;;;;;6227069;23;20004;-81
2021/10/01 06:22:01;;;;;;;18.65;3.80;;;;;;;;;;6229351;23;20431;-78
2021/10/01 06:24:28;;;;;;;10.45;3.80;;;;;;;;;;6228353;23;20016;-80
2021/10/01 06:26:54;;;;;;;11.77;3.50;;;;;;;;;;6228648;23;20036;-74
2021/10/01 06:29:20;;;;;;;14.60;3.33;;;;;;;;;;6227425;23;20015;-75
2021/10/01 06:31:46;;;;;;;13.38;3.95;;;;;;;;;;6228240;23;20004;-78
2021/10/01 06:34:13;;;;;;;11.77;4.22;;;;;;;;;;6228785;23;20039;-73
2021/10/01 06:36:40;;;;;;;13.25;4.00;;;;;;;;;;6229228;23;20027;-84
2021/10/01 06:39:07;;;;;;;10.13;3.83;;;;;;;;;;6226932;23;20465;-77
2021/10/01 06:41:34;;;;;;;15.32;4.50;;;;;;;;;;6228444;23;20003;-85
2021/10/01 06:44:03;;;;;;;23.15;5.72;;;;;;;;;;6229300;23;20011;-80
2021/10/01 07:36:15;;;;;;;6.00;3.30;;;;;;;;;;6225415;23;20015;-75
2021/10/01 08:19:48;;;;;;;8.15;4.40;;;;;;;;;;6229129;23;20142;-74
2021/10/01 08:22:14;;;;;;;8.00;3.63;;;;;;;;;;6229575;23;20314;-75
2021/10/01 08:24:41;;;;;;;10.20;4.70;;;;;;;;;;6230198;23;20004;-74
2021/10/01 08:27:08;;;;;;;12.55;4.75;;;;;;;;;;6233015;23;20075;-73
2021/10/01 08:29:34;;;;;;;8.70;4.75;;;;;;;;;;6232921;23;20026;-73
2021/10/01 08:32:01;;;;;;;8.43;5.03;;;;;;;;;;6231471;23;20075;-73
2021/10/01 08:34:29;;;;;;;13.85;5.68;;;;;;;;;;6232310;23;20004;-74
2021/10/01 08:36:55;;;;;;;8.55;5.47;;;;;;;;;;6232032;23;20035;-75
2021/10/01 08:39:23;;;;;;;11.00;5.63;;;;;;;;;;6232200;23;20087;-73
2021/10/01 08:41:50;;;;;;;8.88;4.78;;;;;;;;;;6232286;23;20589;-73
2021/10/01 08:44:16;;;;;;;15.07;5.10;;;;;;;;;;6232224;23;20001;-73
2021/10/01 08:46:44;;;;;;;13.38;5.10;;;;;;;;;;6230500;23;20090;-73
2021/10/01 08:49:10;;;;;;;8.50;4.85;;;;;;;;;;6232274;23;20016;-73
2021/10/01 08:51:37;;;;;;;10.20;4.78;;;;;;;;;;6232205;22;20302;-73
2021/10/01 08:54:03;;;;;;;11.00;4.38;;;;;;;;;;6232191;23;20004;-74
2021/10/01 08:56:29;;;;;;;7.28;4.40;;;;;;;;;;6231877;23;20004;-74
2021/10/01 08:58:56;;;;;;;6.97;4.70;;;;;;;;;;6232119;23;20004;-77
2021/10/01 09:01:23;;;;;;;7.22;4.10;;;;;;;;;;6229996;23;20004;-74
2021/10/01 09:03:49;;;;;;;10.70;4.63;;;;;;;;;;6231501;23;20004;-74
2021/10/01 09:06:16;;;;;;;8.30;4.40;;;;;;;;;;6230994;23;20091;-74
2021/10/01 09:08:50;;;;;;;9.10;4.40;;;;;;;;;;6229248;23;20000;-79
2021/10/01 09:11:16;;;;;;;8.55;4.18;;;;;;;;;;6231839;23;20012;-74
2021/10/01 09:13:43;;;;;;;8.20;4.35;;;;;;;;;;6231880;23;20433;-74
2021/10/01 09:16:10;;;;;;;8.20;4.60;;;;;;;;;;6232315;23;20004;-74
2021/10/01 09:18:38;;;;;;;9.25;4.75;;;;;;;;;;6231815;23;20007;-75
2021/10/01 09:21:12;;;;;;;11.40;5.20;;;;;;;;;;6229861;23;20024;-76
2021/10/01 09:23:43;;;;;;;7.55;4.75;;;;;;;;;;6232425;23;20000;-74
2021/10/01 09:26:09;;;;;;;16.13;5.68;;;;;;;;;;6232120;23;20023;-74
2021/10/01 09:28:54;;;;;;;9.27;5.03;;;;;;;;;;6230700;23;20015;-75
2021/10/01 09:31:29;;;;;;;10.18;4.85;;;;;;;;;;6231700;23;20004;-74
2021/10/01 09:33:56;;;;;;;8.80;5.15;;;;;;;;;;6231490;23;20087;-75
2021/10/01 09:36:22;;;;;;;10.55;5.22;;;;;;;;;;6231807;23;20085;-74
2021/10/01 09:38:48;;;;;;;8.00;4.65;;;;;;;;;;6229949;23;20214;-74
2021/10/01 09:41:16;;;;;;;7.82;5.07;;;;;;;;;;6231478;23;20071;-74
2021/10/01 09:43:42;;;;;;;8.18;4.93;;;;;;;;;;6231339;23;20004;-74
2021/10/01 09:46:12;;;;;;;8.50;4.88;;;;;;;;;;6231585;23;20046;-76
2021/10/01 09:48:40;;;;;;;9.13;5.20;;;;;;;;;;6231807;23;20278;-74
2021/10/01 09:51:17;;;;;;;8.13;4.93;;;;;;;;;;6229534;22;20130;-75
2021/10/01 09:53:48;;;;;;;7.72;4.53;;;;;;;;;;6231405;23;20028;-74
2021/10/01 09:56:25;;;;;;;10.07;5.50;;;;;;;;;;6232055;23;20039;-75
2021/10/01 09:59:05;;;;;;;10.55;5.78;;;;;;;;;;6231427;23;20214;-74
2021/10/01 10:01:31;;;;;;;12.40;5.88;;;;;;;;;;6231527;23;20008;-78
2021/10/01 10:03:57;;;;;;;9.43;6.05;;;;;;;;;;6230095;23;20374;-74
2021/10/01 10:06:24;;;;;;;8.10;5.78;;;;;;;;;;6231570;23;20019;-74
2021/10/01 10:08:50;;;;;;;9.85;5.68;;;;;;;;;;6231319;23;20004;-74
2021/10/01 10:11:19;;;;;;;9.05;5.65;;;;;;;;;;6231491;23;20007;-75
2021/10/01 10:13:46;;;;;;;7.20;5.55;;;;;;;;;;6231708;23;20877;-85
2021/10/01 10:16:12;;;;;;;7.53;4.90;;;;;;;;;;6229815;23;20000;-74
2021/10/01 10:18:39;;;;;;;9.85;5.47;;;;;;;;;;6231845;23;20066;-74
2021/10/01 10:21:05;;;;;;;8.88;5.75;;;;;;;;;;6231842;23;20566;-74
2021/10/01 10:23:32;;;;;;;9.50;5.07;;;;;;;;;;6229865;23;20035;-84
2021/10/01 10:25:58;;;;;;;9.05;5.68;;;;;;;;;;6227897;23;20799;-83
2021/10/01 10:28:25;;;;;;;8.85;5.88;;;;;;;;;;6228659;23;20485;-74
2021/10/01 10:30:55;;;;;;;10.07;5.97;;;;;;;;;;6231374;23;20036;-74
2021/10/01 10:33:42;;;;;;;9.20;6.40;;;;;;;;;;6231506;23;20016;-75
2021/10/01 10:36:27;;;;;;;9.95;5.90;;;;;;;;;;6230887;23;20011;-74
2021/10/01 10:38:54;;;;;;;10.40;5.85;;;;;;;;;;6230045;23;20038;-74
2021/10/01 10:41:25;;;;;;;10.73;6.40;;;;;;;;;;6207119;23;20039;-74
2021/10/01 10:43:51;;;;;;;11.57;6.03;;;;;;;;;;6233869;23;20031;-75
2021/10/01 10:46:37;;;;;;;11.10;5.80;;;;;;;;;;6233542;23;20039;-74
2021/10/01 10:49:16;;;;;;;10.02;6.25;;;;;;;;;;6186649;23;20416;-74
2021/10/01 10:51:58;;;;;;;7.95;6.35;;;;;;;;;;6231584;22;20011;-74
2021/10/01 10:54:24;;;;;;;;;;;;;;;;;;6233790;23;20421;-74
2021/10/01 10:57:09;;;;;;;9.15;5.78;;;;;;;;;;6233684;23;19906;-74
2021/10/01 10:59:35;;;;;;;8.02;5.97;;;;;;;;;;6206682;23;20011;-75
2021/10/01 11:02:19;;;;;;;9.32;6.10;;;;;;;;;;6233330;23;20433;-78
2021/10/01 11:04:48;;;;;;;7.72;6.63;;;;;;;;;;6232754;23;19997;-76
2021/10/01 11:07:33;;;;;;;8.30;6.80;;;;;;;;;;6232972;23;20008;-76
2021/10/01 11:10:19;;;;;;;10.77;5.55;;;;;;;;;;6233586;23;20004;-74
2021/10/01 11:12:45;;;;;;;7.95;5.88;;;;;;;;;;6232048;23;20079;-74
2021/10/01 11:15:13;;;;;;;7.50;5.35;;;;;;;;;;6233056;23;20000;-74
2021/10/01 11:17:39;;;;;;;11.75;5.72;;;;;;;;;;6233080;23;20090;-74
2021/10/01 11:20:05;;;;;;;12.38;6.30;;;;;;;;;;6207129;23;20303;-74
2021/10/01 11:22:42;;;;;;;12.52;6.40;;;;;;;;;;6233279;23;20012;-75
2021/10/01 11:25:11;;;;;;;8.57;5.30;;;;;;;;;;6231655;23;20575;-74
2021/10/01 11:27:58;;;;;;;8.60;5.57;;;;;;;;;;6233524;23;20084;-75
2021/10/01 11:30:25;;;;;;;12.68;5.38;;;;;;;;;;6232861;23;19996;-74
2021/10/01 11:32:52;;;;;;;8.18;5.78;;;;;;;;;;6232613;23;20388;-74
2021/10/01 11:35:20;;;;;;;9.02;5.00;;;;;;;;;;6231183;23;20004;-74
2021/10/01 11:37:49;;;;;;;10.48;5.88;;;;;;;;;;6232899;23;20459;-77
2021/10/01 11:40:24;;;;;;;8.65;6.00;;;;;;;;;;6233253;23;19996;-74
2021/10/01 11:42:51;;;;;;;7.93;5.68;;;;;;;;;;6232557;23;20083;-77
2021/10/01 11:45:20;;;;;;;6.57;5.10;;;;;;;;;;6232853;23;20071;-74
2021/10/01 11:47:52;;;;;;;6.40;5.63;;;;;;;;;;6231728;23;20418;-74
2021/10/01 11:50:20;;;;;;;10.23;6.00;;;;;;;;;;6232264;22;20036;-74
2021/10/01 11:52:48;;;;;;;8.32;5.72;;;;;;;;;;6206514;23;20003;-74
2021/10/01 11:55:14;;;;;;;10.27;6.28;;;;;;;;;;6232448;23;20000;-77
2021/10/01 11:57:43;;;;;;;9.50;6.43;;;;;;;;;;6231042;23;20000;-75
2021/10/01 12:00:11;;;;;;;10.38;6.07;;;;;;;;;;6232526;23;20003;-75
2021/10/01 12:02:37;;;;;;;8.90;6.10;;;;;;;;;;6232903;23;20004;-74
2021/10/01 12:05:24;;;;;;;9.00;5.45;;;;;;;;;;6232127;23;20000;-74
2021/10/01 12:07:50;;;;;;;12.02;6.50;;;;;;;;;;6232440;23;20004;-74
2021/10/01 12:10:16;;;;;;;9.23;5.90;;;;;;;;;;6232967;23;20014;-74
2021/10/01 12:13:01;;;;;;;9.57;5.78;;;;;;;;;;6230916;23;20008;-75
2021/10/01 12:15:34;;;;;;;12.57;5.90;;;;;;;;;;6232310;23;20004;-74
2021/10/01 12:18:00;;;;;;;7.75;5.95;;;;;;;;;;6232533;23;19996;-74
2021/10/01 12:20:27;;;;;;;8.77;6.07;;;;;;;;;;6232587;23;20440;-74
2021/10/01 12:22:53;;;;;;;11.00;6.20;;;;;;;;;;6231052;23;20053;-74
2021/10/01 12:25:26;;;;;;;9.20;5.57;;;;;;;;;;6232136;23;20000;-74
2021/10/01 12:27:52;;;;;;;9.90;5.88;;;;;;;;;;6206014;23;20008;-77
2021/10/01 12:30:18;;;;;;;7.70;5.72;;;;;;;;;;6232774;23;20165;-79
2021/10/01 12:32:47;;;;;;;10.45;6.15;;;;;;;;;;6232429;23;20093;-76
2021/10/01 12:35:14;;;;;;;8.40;5.60;;;;;;;;;;6229903;23;20007;-74
2021/10/01 12:37:42;;;;;;;6.97;6.18;;;;;;;;;;6232301;23;20013;-74
2021/10/01 12:40:10;;;;;;;9.82;5.95;;;;;;;;;;6205239;23;20070;-74
2021/10/01 12:42:37;;;;;;;9.95;6.25;;;;;;;;;;6232030;23;20004;-74
2021/10/01 12:45:07;;;;;;;8.20;6.22;;;;;;;;;;6230616;23;20007;-74
2021/10/01 12:47:34;;;;;;;8.35;5.95;;;;;;;;;;6205921;23;20012;-74
2021/10/01 12:50:04;;;;;;;12.55;6.45;;;;;;;;;;6232013;22;20063;-74
2021/10/01 12:52:31;;;;;;;8.73;5.95;;;;;;;;;;6232723;23;20000;-74
2021/10/01 12:55:01;;;;;;;8.18;6.57;;;;;;;;;;6205217;23;20010;-74
2021/10/01 12:57:30;;;;;;;8.07;5.85;;;;;;;;;;6229987;23;20093;-75
2021/10/01 13:00:03;;;;;;;8.27;5.55;;;;;;;;;;6232195;23;20004;-75
2021/10/01 13:02:35;;;;;;;5.95;5.10;;;;;;;;;;6231532;23;20336;-74
2021/10/01 13:05:15;;;;;;;8.52;6.30;;;;;;;;;;6229793;23;20083;-74
2021/10/01 13:07:50;;;;;;;11.25;6.78;;;;;;;;;;6231810;23;20070;-74
2021/10/01 13:10:25;;;;;;;9.93;7.00;;;;;;;;;;6206195;23;20098;-74
2021/10/01 13:12:56;;;;;;;11.07;6.47;;;;;;;;;;6230798;23;20321;-74
2021/10/01 13:15:34;;;;;;;8.48;5.72;;;;;;;;;;6231819;23;20411;-74
2021/10/01 13:18:00;;;;;;;11.38;6.65;;;;;;;;;;6231467;23;20039;-74
2021/10/01 13:20:27;;;;;;;12.40;7.07;;;;;;;;;;6232425;23;20023;-74
2021/10/01 13:23:00;;;;;;;11.30;6.55;;;;;;;;;;6232043;23;20000;-75
2021/10/01 13:25:27;;;;;;;8.00;6.47;;;;;;;;;;6230185;23;20019;-74
2021/10/01 13:27:54;;;;;;;7.72;5.78;;;;;;;;;;6231551;23;20585;-74
2021/10/01 13:30:21;;;;;;;7.63;5.53;;;;;;;;;;6231906;23;20004;-74
2021/10/01 13:32:48;;;;;;;13.88;7.57;;;;;;;;;;6231631;23;20083;-72
2021/10/01 13:35:15;;;;;;;14.27;6.95;;;;;;;;;;6232179;23;20063;-70
2021/10/01 13:37:46;;;;;;;8.73;6.40;;;;;;;;;;6229814;23;20095;-71
2021/10/01 13:40:13;;;;;;;9.70;6.25;;;;;;;;;;6232027;23;20000;-70
2021/10/01 13:42:39;;;;;;;8.07;6.22;;;;;;;;;;6231528;23;20023;-74
2021/10/01 13:45:06;;;;;;;9.20;6.47;;;;;;;;;;6231776;23;20301;-72
2021/10/01 13:47:33;;;;;;;11.45;6.50;;;;;;;;;;6232368;23;20012;-75
2021/10/01 13:49:59;;;;;;;13.20;5.90;;;;;;;;;;6229680;22;20472;-71
2021/10/01 13:52:26;;;;;;;8.13;5.97;;;;;;;;;;6230586;23;20011;-75
2021/10/01 13:54:52;;;;;;;12.30;6.60;;;;;;;;;;6230987;23;20000;-73
2021/10/01 13:57:18;;;;;;;9.57;6.43;;;;;;;;;;6232075;23;20010;-74
2021/10/01 13:59:44;;;;;;;9.48;6.32;;;;;;;;;;6231781;23;20540;-77
2021/10/01 14:02:11;;;;;;;10.95;6.13;;;;;;;;;;6230771;23;20000;-75
2021/10/01 14:04:37;;;;;;;13.50;6.45;;;;;;;;;;6231814;23;20012;-78
2021/10/01 14:07:03;;;;;;;8.10;6.03;;;;;;;;;;6231483;23;20084;-74
2021/10/01 14:09:30;;;;;;;11.02;6.38;;;;;;;;;;6231734;23;20024;-70
2021/10/01 14:11:56;;;;;;;9.68;6.20;;;;;;;;;;6229314;23;20018;-70
2021/10/01 14:14:23;;;;;;;9.73;6.40;;;;;;;;;;6233380;23;20007;-71
2021/10/01 14:16:49;;;;;;;12.20;6.45;;;;;;;;;;6233804;23;20004;-72
2021/10/01 14:19:15;;;;;;;12.45;6.88;;;;;;;;;;6233677;23;20015;-70
2021/10/01 14:21:41;;;;;;;10.60;5.82;;;;;;;;;;6205967;23;20086;-74
2021/10/01 14:24:07;;;;;;;7.65;5.85;;;;;;;;;;6229213;23;19999;-74
2021/10/01 14:26:34;;;;;;;9.70;6.50;;;;;;;;;;6231040;23;20421;-76
2021/10/01 14:29:00;;;;;;;8.02;5.80;;;;;;;;;;6231122;23;19996;-74
2021/10/01 14:31:26;;;;;;;13.77;7.22;;;;;;;;;;6230501;23;20329;-74
2021/10/01 14:33:53;;;;;;;11.20;6.75;;;;;;;;;;6229761;23;20012;-81
2021/10/01 14:36:19;;;;;;;10.52;6.38;;;;;;;;;;6230096;23;20007;-77
2021/10/01 14:38:45;;;;;;;10.45;6.13;;;;;;;;;;6229204;23;20496;-75
2021/10/01 14:41:12;;;;;;;9.32;6.20;;;;;;;;;;6231054;23;20008;-71
2021/10/01 14:43:38;;;;;;;8.65;6.25;;;;;;;;;;6230813;23;20079;-75
2021/10/01 14:46:06;;;;;;;11.75;6.80;;;;;;;;;;6228074;23;20816;-74
2021/10/01 14:48:32;;;;;;;11.85;5.82;;;;;;;;;;6231933;23;20004;-75
2021/10/01 14:50:59;;;;;;;8.95;6.32;;;;;;;;;;6233503;22;20095;-74
2021/10/01 14:53:25;;;;;;;11.50;6.25;;;;;;;;;;6231668;23;20001;-74
2021/10/01 14:55:53;;;;;;;7.35;5.93;;;;;;;;;;6232583;23;20031;-75
2021/10/01 14:58:19;;;;;;;8.25;6.38;;;;;;;;;;6232740;23;20349;-76
2021/10/01 15:00:49;;;;;;;8.85;6.03;;;;;;;;;;6231368;23;20012;-73
2021/10/01 15:03:15;;;;;;;10.07;6.80;;;;;;;;;;6232592;23;20055;-74
2021/10/01 15:05:41;;;;;;;11.18;6.90;;;;;;;;;;6231076;23;20460;-73
2021/10/01 15:08:07;;;;;;;12.75;6.57;;;;;;;;;;6232734;23;20396;-74
2021/10/01 15:10:34;;;;;;;7.90;5.90;;;;;;;;;;6233626;23;20377;-73
2021/10/01 15:13:00;;;;;;;12.18;7.28;;;;;;;;;;6233198;23;20143;-73
2021/10/01 15:15:27;;;;;;;10.75;7.15;;;;;;;;;;6232759;23;20028;-77
2021/10/01 15:17:54;;;;;;;10.70;6.47;;;;;;;;;;6204162;23;20000;-73
2021/10/01 15:20:20;;;;;;;8.85;6.25;;;;;;;;;;6233018;23;20154;-73
2021/10/01 15:22:46;;;;;;;11.20;6.72;;;;;;;;;;6232559;23;20438;-73
2021/10/01 15:25:13;;;;;;;13.50;7.60;;;;;;;;;;6232656;23;20058;-73
2021/10/01 15:27:39;;;;;;;14.60;8.05;;;;;;;;;;6232795;23;20803;-73
2021/10/01 15:30:05;;;;;;;11.55;7.00;;;;;;;;;;6230807;23;19996;-73
2021/10/01 15:32:32;;;;;;;14.55;6.93;;;;;;;;;;6232818;23;20020;-73
2021/10/01 15:34:58;;;;;;;10.32;6.70;;;;;;;;;;6232619;23;20067;-73
2021/10/01 15:37:25;;;;;;;9.43;5.55;;;;;;;;;;6231489;23;20500;-73
2021/10/01 15:39:53;;;;;;;12.10;6.50;;;;;;;;;;6233413;23;20039;-73
2021/10/01 15:42:19;;;;;;;12.57;6.20;;;;;;;;;;6232872;23;20004;-73
2021/10/01 15:44:45;;;;;;;8.27;5.72;;;;;;;;;;6232653;23;20072;-73
2021/10/01 15:47:11;;;;;;;10.15;6.15;;;;;;;;;;6233021;23;20038;-73
2021/10/01 15:49:37;;;;;;;10.25;6.25;;;;;;;;;;6233025;22;20007;-73
2021/10/01 15:52:04;;;;;;;10.52;6.35;;;;;;;;;;6230981;23;20540;-73
2021/10/01 15:54:30;;;;;;;12.13;6.82;;;;;;;;;;6232785;23;20000;-74
2021/10/01 15:56:56;;;;;;;8.65;5.95;;;;;;;;;;6232376;23;20004;-74
2021/10/01 15:59:22;;;;;;;10.45;6.75;;;;;;;;;;6233115;23;20325;-73
2021/10/01 16:01:48;;;;;;;12.40;7.82;;;;;;;;;;6230722;23;20835;-73
2021/10/01 16:04:15;;;;;;;15.65;10.75;;;;;;;;;;6232588;23;20117;-74
2021/10/01 16:06:41;;;;;;;13.23;9.98;;;;;;;;;;6232242;23;20062;-75
2021/10/01 16:09:07;;;;;;;16.73;10.07;;;;;;;;;;6232352;23;20058;-73
2021/10/01 16:11:34;;;;;;;13.73;8.23;;;;;;;;;;6232512;23;20004;-73
2021/10/01 16:14:00;;;;;;;19.08;13.70;;;;;;;;;;6230470;23;20027;-73
2021/10/01 16:16:26;;;;;;;33.22;23.55;;;;;;;;;;6232688;23;20163;-74